KSUU

Travis AFB Airport

Fairfield, California, USA
METAR KSUU 121858Z AUTO 01011KT 10SM CLR 15/06 A3030 RMK AO2 SLP268 T01480061 $
Observed Flight Rules
Dec-12 @ 18:58 UTC (33 minutes ago) Visual Flight Rules
Wind Visibility Clouds
10° at 11 knots 10 miles
  • Clear skies
Temperatures Readings
Current 15°C / 59°F
Dewpoint 6°C / 43°F
Humidity 55%
Altimeter 30.3" Hg
Pressure 1026.8 hPa
Elevation 19
METAR KSUU 121858Z AUTO 01011KT 10SM CLR 15/06 A3030 RMK AO2 SLP268 T01480061 $
Observed Flight Rules
Dec-12 @ 18:58 UTC
(33 minutes ago)
VFR
Wind Visibility
10° at 11 knots 10 miles
Clouds
  • Clear skies
Temperature Dewpoint
15°C / 59°F 6°C / 43°F
Humidity Altimeter Pressure
55% 30.3" Hg 1026.8 hPa